createdAt,value
2023-03-16T00:00:31.326Z,98434.63
2023-03-16T00:03:18.622Z,98439.56
2023-03-16T00:06:03.360Z,98442.09
2023-03-16T00:08:48.013Z,98439.56
2023-03-16T00:11:32.975Z,98439.34
2023-03-16T00:14:17.392Z,98446.97
2023-03-16T00:17:05.636Z,98445.44
2023-03-16T00:19:56.508Z,98440.72
2023-03-16T00:22:41.507Z,98443.25
2023-03-16T00:25:26.184Z,98440.53
2023-03-16T00:28:13.397Z,98448.53
2023-03-16T00:30:58.560Z,98441.69
2023-03-16T00:33:43.134Z,98449.88
2023-03-16T00:36:28.046Z,98443.25
2023-03-16T00:39:14.217Z,98438.34
2023-03-16T00:41:59.003Z,98448.50
2023-03-16T00:44:44.702Z,98447.56
2023-03-16T00:47:31.290Z,98446.75
2023-03-16T00:50:16.101Z,98440.50
2023-03-16T00:53:01.069Z,98449.69
2023-03-16T00:55:45.919Z,98441.88
2023-03-16T00:58:36.415Z,98436.00
2023-03-16T01:01:21.175Z,98432.09
2023-03-16T01:04:06.153Z,98442.06
2023-03-16T01:06:52.177Z,98439.91
2023-03-16T01:09:38.269Z,98430.91
2023-03-16T01:12:23.321Z,98435.41
2023-03-16T01:15:09.861Z,98444.03
2023-03-16T01:17:54.364Z,98446.56
2023-03-16T01:20:39.604Z,98446.56
2023-03-16T01:23:24.376Z,98443.81
2023-03-16T01:26:10.048Z,98452.81
2023-03-16T01:28:54.923Z,98445.56
2023-03-16T01:31:40.272Z,98450.66
2023-03-16T01:34:26.887Z,98458.28
2023-03-16T01:37:12.414Z,98456.13
2023-03-16T01:40:12.693Z,98454.56
2023-03-16T01:43:04.062Z,98459.25
2023-03-16T01:46:04.802Z,98461.22
2023-03-16T01:49:20.081Z,98467.25
2023-03-16T01:52:12.470Z,98471.75
2023-03-16T01:55:07.108Z,98471.16
2023-03-16T01:57:52.802Z,98471.34
2023-03-16T02:00:38.004Z,98468.59
2023-03-16T02:03:33.851Z,98477.38
2023-03-16T02:06:25.876Z,98484.38
2023-03-16T02:09:14.316Z,98475.97
2023-03-16T02:11:59.393Z,98488.25
2023-03-16T02:14:48.142Z,98492.97
2023-03-16T02:17:34.976Z,98493.13
2023-03-16T02:20:34.495Z,98497.56
2023-03-16T02:23:21.611Z,98498.88
2023-03-16T02:26:19.329Z,98504.88
2023-03-16T02:29:27.263Z,98506.59
2023-03-16T02:32:13.758Z,98513.22
2023-03-16T02:35:00.943Z,98516.91
2023-03-16T02:37:46.024Z,98505.94
2023-03-16T02:40:34.106Z,98511.78
2023-03-16T02:43:33.349Z,98516.81
2023-03-16T02:46:46.190Z,98514.84
2023-03-16T02:49:38.039Z,98510.13
2023-03-16T02:52:22.761Z,98515.78
2023-03-16T02:55:08.962Z,98511.28
2023-03-16T02:57:53.728Z,98517.13
2023-03-16T03:01:04.126Z,98507.75
2023-03-16T03:03:51.288Z,98511.06
2023-03-16T03:06:35.964Z,98511.19
2023-03-16T03:09:20.859Z,98519.56
2023-03-16T03:12:10.994Z,98519.56
2023-03-16T03:14:56.858Z,98527.94
2023-03-16T03:17:42.508Z,98527.16
2023-03-16T03:20:27.989Z,98518.16
2023-03-16T03:23:14.674Z,98529.53
2023-03-16T03:26:00.544Z,98537.75
2023-03-16T03:28:46.712Z,98546.16
2023-03-16T03:31:31.761Z,98544.56
2023-03-16T03:34:16.474Z,98553.75
2023-03-16T03:37:01.245Z,98561.13
2023-03-16T03:39:47.725Z,98551.00
2023-03-16T03:42:32.670Z,98559.03
2023-03-16T03:45:17.659Z,98564.69
2023-03-16T03:48:03.018Z,98566.81
2023-03-16T03:50:48.502Z,98564.81
2023-03-16T03:53:51.850Z,98566.38
2023-03-16T03:57:05.876Z,98565.38
2023-03-16T03:59:50.966Z,98579.22
2023-03-16T04:02:54.501Z,98567.66
2023-03-16T04:05:49.444Z,98568.63
2023-03-16T04:08:35.034Z,98568.03
2023-03-16T04:11:21.183Z,98572.91
2023-03-16T04:14:06.088Z,98575.25
2023-03-16T04:16:51.039Z,98575.44
2023-03-16T04:19:35.828Z,98591.09
2023-03-16T04:22:23.033Z,98588.94
2023-03-16T04:25:11.553Z,98598.09
2023-03-16T04:27:58.066Z,98604.16
2023-03-16T04:30:46.590Z,98612.19
2023-03-16T04:33:41.727Z,98620.22
2023-03-16T04:36:26.620Z,98620.41
2023-03-16T04:39:12.037Z,98616.72
2023-03-16T04:41:57.056Z,98631.16
2023-03-16T04:44:44.276Z,98622.59
2023-03-16T04:47:33.307Z,98631.41
2023-03-16T04:50:18.388Z,98637.41
2023-03-16T04:53:08.625Z,98633.34
2023-03-16T04:55:54.063Z,98630.78
2023-03-16T04:58:39.060Z,98639.34
2023-03-16T05:01:25.621Z,98639.56
2023-03-16T05:04:19.150Z,98654.94
2023-03-16T05:07:04.481Z,98655.38
2023-03-16T05:09:52.970Z,98646.97
2023-03-16T05:12:38.176Z,98652.66
2023-03-16T05:15:24.920Z,98654.03
2023-03-16T05:18:17.693Z,98663.44
2023-03-16T05:21:02.509Z,98661.13
2023-03-16T05:23:58.483Z,98647.47
2023-03-16T05:26:43.658Z,98658.75
2023-03-16T05:29:30.672Z,98661.13
2023-03-16T05:32:16.508Z,98661.53
2023-03-16T05:35:02.675Z,98665.91
2023-03-16T05:37:47.464Z,98677.81
2023-03-16T05:40:36.598Z,98683.31
2023-03-16T05:43:30.820Z,98678.84
2023-03-16T05:46:19.621Z,98671.41
2023-03-16T05:49:05.738Z,98692.75
2023-03-16T05:51:50.849Z,98691.84
2023-03-16T05:54:35.869Z,98703.94
2023-03-16T05:57:20.677Z,98704.09
2023-03-16T06:00:17.594Z,98704.34
2023-03-16T06:03:08.985Z,98700.06
2023-03-16T06:05:55.854Z,98708.47
2023-03-16T06:09:11.684Z,98713.56
2023-03-16T06:12:04.880Z,98707.56
2023-03-16T06:15:32.496Z,98717.00
2023-03-16T06:21:45.016Z,98691.09
2023-03-16T06:28:42.914Z,98683.81
2023-03-16T06:32:26.029Z,98700.91
2023-03-16T06:39:31.689Z,98702.00
2023-03-16T06:42:20.536Z,98706.19
2023-03-16T06:45:21.506Z,98706.56
2023-03-16T06:48:43.594Z,98721.28
2023-03-16T06:51:32.602Z,98718.84
2023-03-16T06:58:27.511Z,98722.25
2023-03-16T07:01:26.640Z,98736.59
2023-03-16T07:04:31.719Z,98740.38
2023-03-16T07:11:46.259Z,98741.00
2023-03-16T07:14:31.465Z,98746.09
2023-03-16T07:17:20.463Z,98755.28
2023-03-16T07:20:23.817Z,98752.75
2023-03-16T07:23:33.134Z,98757.84
2023-03-16T07:35:01.575Z,98757.50
2023-03-16T07:38:24.838Z,98777.69
2023-03-16T07:45:46.930Z,98793.63
2023-03-16T07:49:22.723Z,98777.81
2023-03-16T07:52:46.204Z,98783.16
2023-03-16T07:55:38.714Z,98798.13
2023-03-16T07:58:41.272Z,98794.06
2023-03-16T08:09:52.931Z,98808.09
2023-03-16T08:16:57.592Z,98788.25
2023-03-16T08:19:45.451Z,98798.47
2023-03-16T08:22:30.279Z,98808.50
2023-03-16T08:25:15.711Z,98798.50
2023-03-16T08:28:19.825Z,98794.16
2023-03-16T08:35:37.484Z,98794.75
2023-03-16T08:38:44.139Z,98797.31
2023-03-16T08:45:16.817Z,98833.19
2023-03-16T08:52:41.890Z,98822.03
2023-03-16T08:55:32.266Z,98828.38
2023-03-16T08:58:25.796Z,98854.25
2023-03-16T09:01:44.554Z,98843.09
2023-03-16T09:08:35.869Z,98854.34
2023-03-16T09:15:41.400Z,98875.34
2023-03-16T09:18:35.209Z,98868.88
2023-03-16T09:25:22.857Z,98900.84
2023-03-16T09:28:17.203Z,98896.25
2023-03-16T09:31:21.502Z,98890.34
2023-03-16T09:34:10.039Z,98902.47
2023-03-16T09:40:39.932Z,98894.38
2023-03-16T09:43:30.723Z,98901.50
2023-03-16T09:46:38.339Z,98903.13
2023-03-16T09:49:56.364Z,98898.66
2023-03-16T09:57:14.893Z,98888.41
2023-03-16T10:04:35.375Z,98920.56
2023-03-16T10:08:33.658Z,98896.44
2023-03-16T10:11:43.314Z,98931.63
2023-03-16T10:16:01.159Z,98948.06
2023-03-16T10:26:25.380Z,98929.41
2023-03-16T10:33:23.558Z,98943.22
2023-03-16T10:36:34.974Z,98953.25
2023-03-16T10:39:43.099Z,98951.50
2023-03-16T10:42:34.848Z,98937.34
2023-03-16T10:46:48.045Z,98938.47
2023-03-16T11:07:21.684Z,98942.22
2023-03-16T11:10:56.189Z,98959.81
2023-03-16T11:14:47.120Z,98969.88
2023-03-16T11:34:53.055Z,98974.59
2023-03-16T11:42:52.840Z,98984.69
2023-03-16T11:50:34.117Z,98989.22
2023-03-16T11:53:38.060Z,98990.38
2023-03-16T12:00:53.515Z,98999.59
2023-03-16T12:04:32.010Z,99003.13
2023-03-16T12:08:39.550Z,99017.28
2023-03-16T12:11:43.521Z,99010.25
2023-03-16T12:18:49.794Z,99018.50
2023-03-16T12:21:54.417Z,99008.88
2023-03-16T12:24:50.019Z,99013.97
2023-03-16T12:27:45.309Z,99018.97
2023-03-16T12:31:16.730Z,99023.19
2023-03-16T12:42:13.973Z,99032.84
2023-03-16T12:45:40.416Z,99029.28
2023-03-16T12:48:44.333Z,99039.09
2023-03-16T12:55:15.473Z,99034.59
2023-03-16T12:58:08.902Z,99038.03
2023-03-16T13:01:03.495Z,99034.97
2023-03-16T13:04:01.677Z,99035.84
2023-03-16T13:07:00.787Z,99051.22
2023-03-16T13:10:09.248Z,99040.13
2023-03-16T13:12:53.810Z,99047.41
2023-03-16T13:15:39.340Z,99059.50
2023-03-16T13:18:35.389Z,99055.41
2023-03-16T13:21:41.993Z,99056.94
2023-03-16T13:24:36.034Z,99056.78
2023-03-16T13:27:29.497Z,99068.38
2023-03-16T13:30:23.765Z,99065.03
2023-03-16T13:33:21.865Z,99068.13
2023-03-16T13:36:07.150Z,99066.72
2023-03-16T13:39:16.108Z,99062.50
2023-03-16T13:42:16.283Z,99073.09
2023-03-16T13:45:13.921Z,99067.03
2023-03-16T13:48:01.442Z,99076.56
2023-03-16T13:50:59.191Z,99078.50
2023-03-16T13:53:44.700Z,99074.19
2023-03-16T13:56:32.396Z,99092.78
2023-03-16T13:59:17.847Z,99090.81
2023-03-16T14:02:25.957Z,99096.84
2023-03-16T14:05:18.080Z,99097.09
2023-03-16T14:08:04.578Z,99100.84
2023-03-16T14:10:51.120Z,99109.09
2023-03-16T14:13:38.955Z,99109.03
2023-03-16T14:16:27.809Z,99118.25
2023-03-16T14:19:23.855Z,99125.69
2023-03-16T14:22:14.000Z,99131.78
2023-03-16T14:25:00.343Z,99138.09
2023-03-16T14:27:46.288Z,99138.69
2023-03-16T14:30:31.493Z,99135.84
2023-03-16T14:33:29.328Z,99136.00
2023-03-16T14:36:21.138Z,99141.28
2023-03-16T14:39:28.240Z,99146.22
2023-03-16T14:42:28.202Z,99150.28
2023-03-16T14:45:15.054Z,99149.81
2023-03-16T14:48:06.115Z,99151.94
2023-03-16T14:50:53.995Z,99153.56
2023-03-16T14:53:39.166Z,99162.00
2023-03-16T14:56:32.199Z,99158.44
2023-03-16T14:59:17.632Z,99162.06
2023-03-16T15:02:27.640Z,99176.41
2023-03-16T15:05:21.812Z,99177.53
2023-03-16T15:08:16.639Z,99177.41
2023-03-16T15:11:05.548Z,99197.31
2023-03-16T15:13:51.681Z,99199.34
2023-03-16T15:16:36.626Z,99204.75
2023-03-16T15:19:21.969Z,99199.41
2023-03-16T15:22:10.638Z,99206.38
2023-03-16T15:24:55.969Z,99206.41
2023-03-16T15:27:41.044Z,99223.00
2023-03-16T15:30:27.918Z,99227.06
2023-03-16T15:33:13.413Z,99229.72
2023-03-16T15:36:01.318Z,99242.59
2023-03-16T15:38:49.233Z,99240.34
2023-03-16T15:41:46.698Z,99229.19
2023-03-16T15:44:32.455Z,99238.06
2023-03-16T15:47:17.189Z,99242.00
2023-03-16T15:50:02.099Z,99248.72
2023-03-16T15:52:50.234Z,99248.81
2023-03-16T15:55:42.189Z,99265.38
2023-03-16T15:58:29.494Z,99264.50
2023-03-16T16:01:44.273Z,99267.88
2023-03-16T16:04:29.349Z,99273.03
2023-03-16T16:07:14.230Z,99283.59
2023-03-16T16:09:59.116Z,99278.75
2023-03-16T16:12:50.759Z,99286.09
2023-03-16T16:15:36.980Z,99295.66
2023-03-16T16:18:35.779Z,99301.41
2023-03-16T16:21:24.795Z,99303.50
2023-03-16T16:24:10.217Z,99302.25
2023-03-16T16:26:55.901Z,99308.94
2023-03-16T16:29:40.986Z,99303.56
2023-03-16T16:32:26.162Z,99316.59
2023-03-16T16:35:16.351Z,99320.09
2023-03-16T16:38:01.223Z,99319.50
2023-03-16T16:40:47.007Z,99336.00
2023-03-16T16:43:42.160Z,99332.97
2023-03-16T16:46:30.979Z,99342.69
2023-03-16T16:49:24.047Z,99336.47
2023-03-16T16:52:15.800Z,99345.81
2023-03-16T16:55:00.548Z,99343.25
2023-03-16T16:57:47.519Z,99354.66
2023-03-16T17:00:32.748Z,99359.72
2023-03-16T17:03:25.040Z,99362.59
2023-03-16T17:06:16.361Z,99374.34
2023-03-16T17:09:01.322Z,99374.66
2023-03-16T17:11:46.203Z,99386.06
2023-03-16T17:14:31.691Z,99381.47
2023-03-16T17:17:17.810Z,99393.19
2023-03-16T17:20:05.209Z,99398.09
2023-03-16T17:22:50.766Z,99398.56
2023-03-16T17:25:35.592Z,99391.22
2023-03-16T17:28:21.841Z,99400.59
2023-03-16T17:31:07.113Z,99398.25
2023-03-16T17:33:52.717Z,99409.81
2023-03-16T17:36:39.296Z,99401.91
2023-03-16T17:39:26.830Z,99408.44
2023-03-16T17:42:16.937Z,99409.53
2023-03-16T17:45:01.807Z,99401.16
2023-03-16T17:47:47.961Z,99410.22
2023-03-16T17:50:33.449Z,99404.53
2023-03-16T17:53:20.005Z,99411.53
2023-03-16T17:56:15.427Z,99412.47
2023-03-16T17:59:05.121Z,99415.81
2023-03-16T18:01:50.420Z,99423.13
2023-03-16T18:04:35.610Z,99420.59
2023-03-16T18:07:20.674Z,99430.72
2023-03-16T18:10:06.511Z,99429.00
2023-03-16T18:12:59.079Z,99438.84
2023-03-16T18:15:46.425Z,99439.47
2023-03-16T18:18:36.154Z,99435.50
2023-03-16T18:21:24.234Z,99434.88
2023-03-16T18:24:15.888Z,99443.25
2023-03-16T18:27:01.253Z,99438.94
2023-03-16T18:29:49.328Z,99444.63
2023-03-16T18:32:36.066Z,99438.91
2023-03-16T18:35:22.349Z,99446.31
2023-03-16T18:38:30.542Z,99451.88
2023-03-16T18:41:22.674Z,99454.75
2023-03-16T18:44:23.581Z,99453.03
2023-03-16T18:47:16.482Z,99457.31
2023-03-16T18:50:01.677Z,99460.19
2023-03-16T18:52:46.837Z,99460.38
2023-03-16T18:55:32.133Z,99469.13
2023-03-16T18:58:22.099Z,99482.63
2023-03-16T19:01:20.176Z,99475.63
2023-03-16T19:04:05.463Z,99481.69
2023-03-16T19:06:54.868Z,99483.44
2023-03-16T19:09:41.961Z,99473.59
2023-03-16T19:12:27.632Z,99478.66
2023-03-16T19:15:28.433Z,99480.56
2023-03-16T19:18:14.016Z,99482.91
2023-03-16T19:20:59.456Z,99480.84
2023-03-16T19:23:50.093Z,99483.72
2023-03-16T19:26:36.824Z,99486.56
2023-03-16T19:29:28.657Z,99487.06
2023-03-16T19:32:20.596Z,99484.22
2023-03-16T19:35:15.255Z,99494.03
2023-03-16T19:38:00.549Z,99492.91
2023-03-16T19:40:48.417Z,99487.66
2023-03-16T19:43:33.246Z,99486.06
2023-03-16T19:46:18.474Z,99496.03
2023-03-16T19:49:03.639Z,99495.56
2023-03-16T19:51:50.907Z,99498.22
2023-03-16T19:54:38.023Z,99497.59
2023-03-16T19:57:23.344Z,99500.91
2023-03-16T20:00:19.748Z,99503.75
2023-03-16T20:03:04.892Z,99500.75
2023-03-16T20:05:49.752Z,99500.09
2023-03-16T20:08:34.456Z,99501.34
2023-03-16T20:11:30.304Z,99503.84
2023-03-16T20:14:23.119Z,99500.47
2023-03-16T20:17:21.954Z,99504.88
2023-03-16T20:20:18.359Z,99506.47
2023-03-16T20:23:23.848Z,99509.13
2023-03-16T20:26:16.635Z,99519.56
2023-03-16T20:29:01.751Z,99512.28
2023-03-16T20:31:46.925Z,99523.16
2023-03-16T20:34:31.882Z,99522.69
2023-03-16T20:37:27.342Z,99519.00
2023-03-16T20:40:12.941Z,99521.66
2023-03-16T20:42:57.510Z,99519.25
2023-03-16T20:45:42.610Z,99523.03
2023-03-16T20:48:27.910Z,99522.16
2023-03-16T20:51:14.637Z,99516.75
2023-03-16T20:53:59.591Z,99514.81
2023-03-16T20:56:44.384Z,99521.66
2023-03-16T20:59:29.710Z,99516.59
2023-03-16T21:02:29.490Z,99525.34
2023-03-16T21:05:15.075Z,99527.22
2023-03-16T21:07:59.954Z,99519.06
2023-03-16T21:10:45.291Z,99525.34
2023-03-16T21:13:32.284Z,99529.81
2023-03-16T21:16:17.093Z,99533.09
2023-03-16T21:19:02.062Z,99532.28
2023-03-16T21:21:47.080Z,99525.44
2023-03-16T21:24:31.664Z,99534.19
2023-03-16T21:27:24.890Z,99532.56
2023-03-16T21:30:23.157Z,99530.88
2023-03-16T21:33:19.093Z,99530.13
2023-03-16T21:36:07.551Z,99535.09
2023-03-16T21:38:54.325Z,99530.09
2023-03-16T21:41:39.142Z,99537.28
2023-03-16T21:44:24.004Z,99527.72
2023-03-16T21:47:14.867Z,99541.25
2023-03-16T21:50:01.138Z,99540.44
2023-03-16T21:52:46.820Z,99538.84
2023-03-16T21:55:31.818Z,99543.25
2023-03-16T21:58:17.862Z,99542.97
2023-03-16T22:01:03.795Z,99535.31
2023-03-16T22:03:53.330Z,99539.66
2023-03-16T22:06:38.916Z,99550.19
2023-03-16T22:09:24.299Z,99553.13
2023-03-16T22:12:11.344Z,99553.28
2023-03-16T22:14:56.196Z,99546.78
2023-03-16T22:17:41.134Z,99548.69
2023-03-16T22:20:26.656Z,99549.53
2023-03-16T22:23:26.457Z,99548.31
2023-03-16T22:26:16.196Z,99552.69
2023-03-16T22:29:01.434Z,99563.78
2023-03-16T22:31:46.731Z,99567.66
2023-03-16T22:34:41.382Z,99570.19
2023-03-16T22:37:28.038Z,99563.53
2023-03-16T22:40:18.253Z,99562.06
2023-03-16T22:43:06.918Z,99573.41
2023-03-16T22:45:55.782Z,99575.38
2023-03-16T22:48:40.405Z,99566.75
2023-03-16T22:51:33.986Z,99583.09
2023-03-16T22:54:23.100Z,99580.84
2023-03-16T22:57:15.632Z,99584.81
2023-03-16T23:00:10.614Z,99582.97
2023-03-16T23:02:56.913Z,99580.94
2023-03-16T23:05:42.176Z,99587.88
2023-03-16T23:08:27.311Z,99589.31
2023-03-16T23:11:23.956Z,99588.78
2023-03-16T23:14:13.955Z,99590.41
2023-03-16T23:16:58.925Z,99589.75
2023-03-16T23:19:44.383Z,99599.72
2023-03-16T23:22:29.165Z,99594.66
2023-03-16T23:25:14.967Z,99600.13
2023-03-16T23:28:01.065Z,99603.75
2023-03-16T23:30:46.223Z,99594.47
2023-03-16T23:33:31.386Z,99599.41
2023-03-16T23:36:20.399Z,99597.94
2023-03-16T23:39:05.568Z,99613.09
2023-03-16T23:41:51.684Z,99608.06
2023-03-16T23:44:36.562Z,99604.47
2023-03-16T23:47:21.672Z,99613.22
2023-03-16T23:50:07.197Z,99607.38
2023-03-16T23:52:52.543Z,99606.88
2023-03-16T23:55:37.590Z,99601.28
2023-03-16T23:58:23.346Z,99604.63
